Time;durP1;ratioP1;P1;durP2;ratioP2;P2;SDS_P1;SDS_P2;PMS_P1;PMS_P2;Temp;Humidity;BMP_temperature;BMP_pressure;BME280_temperature;BME280_humidity;BME280_pressure;Samples;Min_cycle;Max_cycle;Signal;HPM_P1;HPM_P2
2021/10/12 00:01:08;;;;;;;13.25;9.75;;;8.40;99.90;;;;;;4859777;29;20204;-73
2021/10/12 00:03:35;;;;;;;13.45;10.77;;;8.40;99.90;;;;;;4859697;29;20575;-73
2021/10/12 00:06:01;;;;;;;14.68;10.52;;;8.40;99.90;;;;;;4859497;29;20231;-73
2021/10/12 00:08:29;;;;;;;11.48;9.77;;;8.40;99.90;;;;;;4859366;29;20208;-73
2021/10/12 00:10:56;;;;;;;13.38;10.82;;;8.40;99.90;;;;;;4859858;29;20204;-73
2021/10/12 00:13:23;;;;;;;15.48;10.07;;;8.30;99.90;;;;;;4859323;29;20227;-73
2021/10/12 00:15:50;;;;;;;15.23;11.57;;;8.30;99.90;;;;;;4859187;29;20236;-73
2021/10/12 00:18:16;;;;;;;15.18;11.30;;;8.30;99.90;;;;;;4859570;29;20207;-73
2021/10/12 00:20:43;;;;;;;14.90;10.10;;;8.20;99.90;;;;;;4859665;29;20218;-73
2021/10/12 00:23:10;;;;;;;15.70;10.32;;;8.20;99.90;;;;;;4859618;29;20234;-73
2021/10/12 00:25:39;;;;;;;14.77;10.63;;;8.10;99.90;;;;;;4859183;29;20235;-74
2021/10/12 00:28:05;;;;;;;13.73;10.48;;;8.10;99.90;;;;;;4859311;29;20216;-73
2021/10/12 00:30:32;;;;;;;16.80;11.05;;;8.10;99.90;;;;;;4859175;29;20215;-73
2021/10/12 00:32:59;;;;;;;13.10;10.20;;;8.10;99.90;;;;;;4918320;23;20241;-96
2021/10/12 00:35:26;;;;;;;14.60;11.35;;;8.10;99.90;;;;;;4940386;29;20206;-95
2021/10/12 00:37:53;;;;;;;16.50;11.32;;;8.10;99.90;;;;;;4940930;29;20270;-96
2021/10/12 00:40:20;;;;;;;14.57;10.85;;;8.10;99.90;;;;;;4941301;29;20217;-95
2021/10/12 00:42:48;;;;;;;14.32;10.70;;;8.10;99.90;;;;;;4941503;29;20206;-96
2021/10/12 00:45:17;;;;;;;15.68;10.65;;;8.10;99.90;;;;;;4941271;29;20249;-96
2021/10/12 00:47:56;;;;;;;14.45;11.75;;;8.20;99.90;;;;;;4940903;29;20202;-95
2021/10/12 00:50:24;;;;;;;14.05;10.73;;;8.20;99.90;;;;;;4941200;29;20204;-96
2021/10/12 00:52:51;;;;;;;14.25;10.57;;;8.20;99.90;;;;;;4888891;23;20706;-75
2021/10/12 00:55:18;;;;;;;14.05;10.60;;;8.20;99.90;;;;;;4877225;29;20234;-75
2021/10/12 00:57:44;;;;;;;16.58;11.13;;;8.20;99.90;;;;;;4876696;29;20214;-75
2021/10/12 01:00:13;;;;;;;14.48;11.30;;;8.20;99.90;;;;;;4877527;29;20218;-75
2021/10/12 01:02:40;;;;;;;14.18;11.32;;;8.20;99.90;;;;;;4877214;29;20411;-75
2021/10/12 01:05:08;;;;;;;14.57;10.52;;;8.20;99.90;;;;;;4877182;29;20227;-75
2021/10/12 01:07:35;;;;;;;14.23;11.15;;;8.20;99.90;;;;;;4876698;29;20210;-75
2021/10/12 01:10:02;;;;;;;16.80;11.18;;;8.20;99.90;;;;;;4877126;29;20215;-74
2021/10/12 01:12:29;;;;;;;17.92;12.82;;;8.20;99.90;;;;;;4877179;29;20214;-74
2021/10/12 01:14:56;;;;;;;16.65;11.27;;;8.30;99.90;;;;;;4876933;29;20235;-75
2021/10/12 01:17:24;;;;;;;15.77;11.73;;;8.20;99.90;;;;;;4876621;29;20623;-74
2021/10/12 01:19:51;;;;;;;18.83;12.27;;;8.30;99.90;;;;;;4876476;29;20206;-74
2021/10/12 01:22:19;;;;;;;16.45;11.02;;;8.30;99.90;;;;;;4877140;29;20630;-75
2021/10/12 01:24:46;;;;;;;18.35;12.52;;;8.30;99.90;;;;;;4876885;29;20227;-75
2021/10/12 01:27:13;;;;;;;15.63;11.73;;;8.30;99.90;;;;;;4876766;29;20882;-74
2021/10/12 01:29:39;;;;;;;13.77;11.00;;;8.30;99.90;;;;;;4876726;29;20218;-75
2021/10/12 01:32:06;;;;;;;14.48;10.70;;;8.30;99.90;;;;;;4876968;29;20211;-74
2021/10/12 01:34:33;;;;;;;15.15;11.43;;;8.20;99.90;;;;;;4876689;29;20231;-75
2021/10/12 01:36:59;;;;;;;13.30;10.23;;;8.20;99.90;;;;;;4876408;29;20210;-74
2021/10/12 01:39:28;;;;;;;14.77;11.95;;;8.20;99.90;;;;;;4876861;29;20211;-74
2021/10/12 01:41:55;;;;;;;14.85;10.80;;;8.10;99.90;;;;;;4876777;29;20271;-75
2021/10/12 01:44:21;;;;;;;15.05;11.05;;;8.10;99.90;;;;;;4876669;29;20226;-74
2021/10/12 01:46:49;;;;;;;16.05;11.85;;;8.10;99.90;;;;;;4876355;29;20234;-74
2021/10/12 01:49:16;;;;;;;12.73;10.15;;;8.00;99.90;;;;;;4876890;29;20207;-74
2021/10/12 01:51:43;;;;;;;14.88;10.60;;;8.00;99.90;;;;;;4876650;29;20694;-75
2021/10/12 01:54:18;;;;;;;12.38;10.77;;;7.90;99.90;;;;;;4876683;29;20714;-74
2021/10/12 01:56:46;;;;;;;12.13;9.48;;;7.90;99.90;;;;;;4876242;29;20233;-74
2021/10/12 01:59:13;;;;;;;16.35;11.23;;;7.90;99.90;;;;;;4876667;29;20475;-75
2021/10/12 02:01:39;;;;;;;12.93;10.02;;;7.90;99.90;;;;;;4876604;29;20210;-75
2021/10/12 02:04:06;;;;;;;12.45;9.93;;;7.90;99.90;;;;;;4876637;29;20712;-75
2021/10/12 02:06:33;;;;;;;16.33;11.13;;;7.90;99.90;;;;;;4876102;29;20250;-74
2021/10/12 02:09:00;;;;;;;15.43;10.98;;;7.90;99.90;;;;;;4877026;29;20238;-75
2021/10/12 02:11:27;;;;;;;14.27;10.65;;;7.90;99.90;;;;;;4876629;29;20218;-74
2021/10/12 02:13:55;;;;;;;14.25;10.07;;;7.90;99.90;;;;;;4876315;29;20249;-75
2021/10/12 02:16:22;;;;;;;18.63;10.45;;;8.00;99.90;;;;;;4876381;29;20208;-75
2021/10/12 02:18:49;;;;;;;13.98;10.50;;;8.00;99.90;;;;;;4876472;29;20207;-74
2021/10/12 02:21:16;;;;;;;14.77;11.05;;;8.00;99.90;;;;;;4876759;29;20218;-75
2021/10/12 02:23:43;;;;;;;12.85;10.70;;;8.00;99.90;;;;;;4876266;29;20199;-75
2021/10/12 02:26:09;;;;;;;12.45;10.15;;;8.00;99.90;;;;;;4876017;29;20565;-75
2021/10/12 02:28:36;;;;;;;12.88;10.63;;;8.10;99.90;;;;;;4876318;29;20215;-75
2021/10/12 02:31:04;;;;;;;14.38;10.35;;;8.10;99.90;;;;;;4879200;29;20215;-75
2021/10/12 02:33:31;;;;;;;18.58;10.85;;;8.10;99.90;;;;;;4879807;29;20239;-74
2021/10/12 02:35:57;;;;;;;16.88;11.52;;;8.10;99.90;;;;;;4879416;29;20239;-75
2021/10/12 02:38:24;;;;;;;15.60;10.80;;;8.10;99.90;;;;;;4879962;29;20218;-75
2021/10/12 02:40:52;;;;;;;13.38;10.15;;;8.10;99.90;;;;;;4879706;29;20207;-75
2021/10/12 02:43:19;;;;;;;17.88;11.25;;;8.10;99.90;;;;;;4879916;29;20208;-75
2021/10/12 02:45:46;;;;;;;15.48;10.60;;;8.20;99.90;;;;;;4879021;29;20227;-75
2021/10/12 02:48:14;;;;;;;15.57;11.13;;;8.20;99.90;;;;;;4880169;29;20215;-75
2021/10/12 02:50:42;;;;;;;14.10;10.57;;;8.20;99.90;;;;;;4879471;29;20222;-75
2021/10/12 02:53:10;;;;;;;14.68;11.55;;;8.20;99.90;;;;;;4880017;29;20207;-75
2021/10/12 02:55:37;;;;;;;13.30;10.57;;;8.20;99.90;;;;;;4879379;29;20349;-75
2021/10/12 02:58:04;;;;;;;15.80;10.75;;;8.20;99.90;;;;;;4879097;29;20214;-75
2021/10/12 03:00:30;;;;;;;13.45;10.32;;;8.20;99.90;;;;;;4879379;29;20698;-75
2021/10/12 03:02:57;;;;;;;12.82;11.48;;;8.20;99.90;;;;;;4879472;29;20215;-74
2021/10/12 03:05:25;;;;;;;15.77;11.00;;;8.20;99.90;;;;;;4879286;29;20231;-75
2021/10/12 03:07:52;;;;;;;17.13;11.35;;;8.20;99.90;;;;;;4878758;29;20207;-75
2021/10/12 03:10:19;;;;;;;16.20;10.80;;;8.20;99.90;;;;;;4879502;29;20214;-75
2021/10/12 03:12:46;;;;;;;14.10;9.70;;;8.20;99.90;;;;;;4879024;29;20683;-75
2021/10/12 03:15:13;;;;;;;13.68;10.60;;;8.20;99.90;;;;;;4879146;29;20234;-75
2021/10/12 03:17:40;;;;;;;12.10;9.43;;;8.20;99.90;;;;;;4878657;29;20211;-75
2021/10/12 03:20:08;;;;;;;14.55;10.50;;;8.20;99.90;;;;;;4879220;29;20203;-75
2021/10/12 03:22:36;;;;;;;13.27;9.70;;;8.20;99.90;;;;;;4879066;29;20574;-75
2021/10/12 03:25:03;;;;;;;12.80;10.25;;;8.20;99.90;;;;;;4878903;29;20227;-74
2021/10/12 03:27:30;;;;;;;11.55;8.82;;;8.20;99.90;;;;;;4878698;29;20211;-74
2021/10/12 03:29:57;;;;;;;11.63;8.52;;;8.20;99.90;;;;;;4878989;29;20210;-74
2021/10/12 03:32:23;;;;;;;12.68;9.07;;;8.20;99.90;;;;;;4878765;29;20199;-74
2021/10/12 03:34:50;;;;;;;13.15;9.32;;;8.20;99.90;;;;;;4878161;29;20712;-74
2021/10/12 03:37:17;;;;;;;15.32;10.15;;;8.30;99.90;;;;;;4878154;29;20199;-74
2021/10/12 03:39:45;;;;;;;14.00;8.60;;;8.30;99.90;;;;;;4878395;29;20196;-74
2021/10/12 03:42:12;;;;;;;12.27;8.50;;;8.30;99.90;;;;;;4878032;29;20575;-75
2021/10/12 03:44:39;;;;;;;13.48;8.88;;;8.40;99.90;;;;;;4878509;29;20216;-75
2021/10/12 03:47:05;;;;;;;10.40;8.52;;;8.30;99.90;;;;;;4877957;29;20199;-74
2021/10/12 03:49:32;;;;;;;10.27;8.23;;;8.30;99.90;;;;;;4878430;29;20664;-74
2021/10/12 03:51:59;;;;;;;12.32;9.13;;;8.30;99.90;;;;;;4878192;29;20694;-75
2021/10/12 03:54:25;;;;;;;11.63;8.27;;;8.30;99.90;;;;;;4877984;29;20230;-74
2021/10/12 03:56:53;;;;;;;13.25;9.60;;;8.30;99.90;;;;;;4876907;29;20969;-72
2021/10/12 03:59:20;;;;;;;12.10;9.55;;;8.30;99.90;;;;;;4877732;29;20210;-73
2021/10/12 04:01:47;;;;;;;10.77;8.40;;;8.30;99.90;;;;;;4878178;29;20604;-73
2021/10/12 04:04:14;;;;;;;9.95;7.55;;;8.30;99.90;;;;;;4878023;29;20215;-73
2021/10/12 04:06:40;;;;;;;15.18;7.75;;;8.30;99.90;;;;;;4877751;29;20215;-73
2021/10/12 04:09:07;;;;;;;10.65;8.40;;;8.40;99.90;;;;;;4878419;29;20207;-73
2021/10/12 04:11:34;;;;;;;10.88;8.65;;;8.40;99.90;;;;;;4877656;29;20207;-73
2021/10/12 04:14:02;;;;;;;13.63;9.07;;;8.40;99.90;;;;;;4878051;29;20638;-74
2021/10/12 04:16:30;;;;;;;12.50;9.10;;;8.40;99.90;;;;;;4874993;29;20204;-74
2021/10/12 04:18:57;;;;;;;11.00;8.85;;;8.40;99.90;;;;;;4878439;29;20715;-74
2021/10/12 04:21:23;;;;;;;11.88;8.15;;;8.40;99.90;;;;;;4877931;29;20215;-74
2021/10/12 04:23:50;;;;;;;11.73;8.35;;;8.40;99.90;;;;;;4878243;29;20203;-73
2021/10/12 04:26:19;;;;;;;13.02;8.18;;;8.40;99.90;;;;;;4877135;29;20317;-74
2021/10/12 04:28:46;;;;;;;10.70;8.95;;;8.40;99.90;;;;;;4877437;29;20195;-73
2021/10/12 04:31:14;;;;;;;10.07;7.70;;;8.40;99.90;;;;;;4877288;29;20211;-74
2021/10/12 04:33:40;;;;;;;13.68;8.20;;;8.40;99.90;;;;;;4876763;29;20218;-73
2021/10/12 04:36:07;;;;;;;11.68;8.73;;;8.40;99.90;;;;;;4877122;29;20242;-73
2021/10/12 04:38:34;;;;;;;12.70;9.00;;;8.40;99.90;;;;;;4877740;29;20214;-73
2021/10/12 04:41:02;;;;;;;9.98;8.43;;;8.40;99.90;;;;;;4877771;29;20214;-73
2021/10/12 04:43:29;;;;;;;11.35;9.30;;;8.40;99.90;;;;;;4877727;29;20259;-73
2021/10/12 04:45:55;;;;;;;13.13;9.27;;;8.40;99.90;;;;;;4877238;29;20226;-74
2021/10/12 04:48:24;;;;;;;12.88;8.68;;;8.40;99.90;;;;;;4877803;29;20203;-73
2021/10/12 04:50:50;;;;;;;13.38;8.70;;;8.40;99.90;;;;;;4877491;29;20238;-74
2021/10/12 04:53:17;;;;;;;11.90;9.10;;;8.40;99.90;;;;;;4876907;29;20633;-73
2021/10/12 04:55:44;;;;;;;15.13;9.95;;;8.50;99.90;;;;;;4876865;29;20660;-73
2021/10/12 04:58:11;;;;;;;11.48;8.73;;;8.40;99.90;;;;;;4877510;29;20208;-74
2021/10/12 05:00:38;;;;;;;11.88;8.90;;;8.40;99.90;;;;;;4877367;29;20213;-73
2021/10/12 05:03:05;;;;;;;11.80;9.40;;;8.40;99.90;;;;;;4877450;29;20214;-74
2021/10/12 05:05:34;;;;;;;13.65;9.00;;;8.40;99.90;;;;;;4877190;29;20246;-74
2021/10/12 05:08:00;;;;;;;12.73;9.10;;;8.40;99.90;;;;;;4876892;29;20230;-73
2021/10/12 05:10:27;;;;;;;13.45;9.02;;;8.50;99.90;;;;;;4877561;29;20697;-73
2021/10/12 05:12:55;;;;;;;14.30;10.55;;;8.40;99.90;;;;;;4877236;29;20207;-74
2021/10/12 05:15:23;;;;;;;11.93;9.48;;;8.50;99.90;;;;;;4877065;29;20694;-74
2021/10/12 05:17:50;;;;;;;12.57;8.75;;;8.50;99.90;;;;;;4876625;29;20777;-74
2021/10/12 05:20:18;;;;;;;11.88;9.80;;;8.40;99.90;;;;;;4877414;29;20640;-74
2021/10/12 05:22:46;;;;;;;15.85;9.60;;;8.50;99.90;;;;;;4877037;29;20207;-73
2021/10/12 05:25:13;;;;;;;12.77;9.80;;;8.40;99.90;;;;;;4877118;29;20250;-74
2021/10/12 05:27:40;;;;;;;11.85;8.55;;;8.50;99.90;;;;;;4876541;29;20218;-74
2021/10/12 05:30:10;;;;;;;10.95;9.68;;;8.50;99.90;;;;;;4876960;29;20229;-74
2021/10/12 05:32:37;;;;;;;13.77;9.73;;;8.40;99.90;;;;;;4876990;29;20207;-73
2021/10/12 05:35:04;;;;;;;13.25;10.15;;;8.50;99.90;;;;;;4876730;29;20235;-74
2021/10/12 05:37:31;;;;;;;11.50;8.93;;;8.50;99.90;;;;;;4876461;29;20589;-74
2021/10/12 05:39:59;;;;;;;10.25;9.15;;;8.50;99.90;;;;;;4877075;29;20222;-74
2021/10/12 05:42:26;;;;;;;11.65;9.82;;;8.50;99.90;;;;;;4876925;29;20229;-74
2021/10/12 05:44:53;;;;;;;11.30;8.75;;;8.50;99.90;;;;;;4876721;29;20223;-74
2021/10/12 05:47:19;;;;;;;12.30;9.65;;;8.50;99.90;;;;;;4876584;29;20207;-74
2021/10/12 05:49:46;;;;;;;12.63;9.35;;;8.50;99.90;;;;;;4876703;29;20587;-74
2021/10/12 05:52:15;;;;;;;13.68;9.70;;;8.50;99.90;;;;;;4876881;29;20221;-74
2021/10/12 05:54:49;;;;;;;12.40;9.32;;;8.50;99.90;;;;;;4876609;29;20231;-74
2021/10/12 05:57:23;;;;;;;15.05;10.30;;;8.50;99.90;;;;;;4876659;29;20207;-74
2021/10/12 05:59:50;;;;;;;19.33;10.55;;;8.50;99.90;;;;;;4876920;29;20638;-74
2021/10/12 06:02:17;;;;;;;13.00;9.35;;;8.50;99.90;;;;;;4877336;29;20214;-73
2021/10/12 06:04:43;;;;;;;13.25;9.95;;;8.50;99.90;;;;;;4877441;29;20230;-73
2021/10/12 06:07:10;;;;;;;13.20;9.38;;;8.50;99.90;;;;;;4880521;29;20210;-74
2021/10/12 06:09:37;;;;;;;15.73;9.50;;;8.50;99.90;;;;;;4880658;29;20214;-74
2021/10/12 06:12:04;;;;;;;14.40;8.82;;;8.60;99.90;;;;;;4880300;29;20215;-74
2021/10/12 06:14:32;;;;;;;12.38;9.57;;;8.60;99.90;;;;;;4880580;29;20704;-74
2021/10/12 06:16:59;;;;;;;14.07;9.68;;;8.60;99.90;;;;;;4879831;29;20215;-74
2021/10/12 06:19:25;;;;;;;12.55;9.07;;;8.60;99.90;;;;;;4880579;29;20204;-74
2021/10/12 06:21:52;;;;;;;14.40;9.40;;;8.60;99.90;;;;;;4879850;29;20204;-74
2021/10/12 06:24:19;;;;;;;13.75;8.95;;;8.60;99.90;;;;;;4880338;29;20666;-73
2021/10/12 06:26:45;;;;;;;13.27;8.90;;;8.60;99.90;;;;;;4879973;29;20546;-74
2021/10/12 06:29:12;;;;;;;16.05;10.02;;;8.60;99.90;;;;;;4880098;29;20215;-74
2021/10/12 06:31:40;;;;;;;11.02;9.45;;;8.60;99.90;;;;;;4880155;29;20218;-73
2021/10/12 06:34:07;;;;;;;13.63;9.18;;;8.60;99.90;;;;;;4899253;23;20230;-70
2021/10/12 06:36:35;;;;;;;13.07;9.15;;;8.60;99.90;;;;;;4879323;29;20270;-69
2021/10/12 06:39:02;;;;;;;14.95;9.00;;;8.70;99.90;;;;;;4879973;29;20736;-70
2021/10/12 06:41:29;;;;;;;13.68;7.88;;;8.70;99.90;;;;;;4880037;29;20203;-69
2021/10/12 06:43:56;;;;;;;13.93;9.73;;;8.70;99.90;;;;;;4879701;29;20214;-70
2021/10/12 06:46:22;;;;;;;12.25;9.32;;;8.70;99.90;;;;;;4879595;29;20625;-70
2021/10/12 06:48:50;;;;;;;12.20;8.50;;;8.70;99.90;;;;;;4880137;29;20218;-70
2021/10/12 06:51:17;;;;;;;12.27;9.23;;;8.80;99.90;;;;;;4879692;29;20230;-69
2021/10/12 06:53:46;;;;;;;11.50;8.23;;;8.80;99.90;;;;;;4878666;29;20207;-70
2021/10/12 06:56:14;;;;;;;11.30;8.07;;;8.80;99.90;;;;;;4879074;29;20325;-69
2021/10/12 06:58:41;;;;;;;9.82;7.45;;;8.80;99.90;;;;;;4880039;29;20211;-69
2021/10/12 07:01:08;;;;;;;12.55;8.75;;;8.80;99.90;;;;;;4879765;29;20301;-69
2021/10/12 07:03:34;;;;;;;15.98;8.93;;;8.80;99.90;;;;;;4879990;29;20203;-70
2021/10/12 07:06:03;;;;;;;11.50;8.52;;;8.80;99.90;;;;;;4878734;29;20757;-69
2021/10/12 07:08:29;;;;;;;12.60;8.02;;;8.80;99.90;;;;;;4879628;29;20214;-69
2021/10/12 07:10:56;;;;;;;12.60;8.13;;;8.80;99.90;;;;;;4879518;29;20211;-70
2021/10/12 07:13:28;;;;;;;16.13;8.57;;;8.80;99.90;;;;;;4879250;29;20675;-70
2021/10/12 07:15:55;;;;;;;13.23;8.40;;;8.90;99.90;;;;;;4878251;29;20666;-70
2021/10/12 07:18:22;;;;;;;12.00;9.48;;;8.90;99.90;;;;;;4879006;29;20204;-70
2021/10/12 07:20:49;;;;;;;11.90;8.85;;;8.80;99.90;;;;;;4879137;29;20229;-69
2021/10/12 07:23:18;;;;;;;10.55;7.85;;;8.90;99.90;;;;;;4879215;29;20572;-69
2021/10/12 07:25:45;;;;;;;11.02;8.50;;;8.80;99.90;;;;;;4878867;29;20726;-69
2021/10/12 07:28:12;;;;;;;13.27;8.40;;;8.90;99.90;;;;;;4879089;29;20226;-70
2021/10/12 07:30:38;;;;;;;10.50;7.88;;;8.80;99.90;;;;;;4879242;29;20585;-69
2021/10/12 07:33:05;;;;;;;13.13;8.35;;;8.80;99.90;;;;;;4878898;29;20215;-69
2021/10/12 07:35:32;;;;;;;10.85;8.65;;;8.80;99.90;;;;;;4878951;29;20258;-69
2021/10/12 07:38:00;;;;;;;11.68;8.55;;;8.80;99.90;;;;;;4878801;29;20211;-69
2021/10/12 07:40:29;;;;;;;12.50;8.45;;;8.80;99.90;;;;;;4879109;29;20218;-70
2021/10/12 07:42:55;;;;;;;9.90;8.57;;;8.80;99.90;;;;;;4878887;29;20215;-70
2021/10/12 07:45:22;;;;;;;9.25;8.23;;;8.80;99.90;;;;;;4878647;29;20257;-69
2021/10/12 07:47:49;;;;;;;11.20;7.70;;;8.80;99.90;;;;;;4878486;29;20214;-70
2021/10/12 07:50:16;;;;;;;9.50;7.93;;;8.80;99.90;;;;;;4878576;29;20215;-69
2021/10/12 07:52:44;;;;;;;9.10;7.40;;;8.80;99.90;;;;;;4878885;29;20237;-69
2021/10/12 07:55:25;;;;;;;12.82;7.78;;;8.90;99.90;;;;;;4878421;29;20588;-69
2021/10/12 07:57:54;;;;;;;11.95;8.15;;;8.90;99.90;;;;;;4878355;29;20210;-69
2021/10/12 08:00:21;;;;;;;9.73;7.82;;;9.00;99.90;;;;;;4878803;29;20245;-70
2021/10/12 08:02:47;;;;;;;10.63;7.72;;;9.00;99.90;;;;;;4878647;29;20203;-70
2021/10/12 08:05:14;;;;;;;12.05;8.00;;;8.90;99.90;;;;;;4878178;29;20634;-69
2021/10/12 08:07:41;;;;;;;9.80;6.30;;;9.00;99.90;;;;;;4878062;29;20207;-69
2021/10/12 08:10:09;;;;;;;8.70;7.72;;;9.00;99.90;;;;;;4878364;29;20210;-70
2021/10/12 08:12:36;;;;;;;8.40;6.25;;;9.00;99.90;;;;;;4878607;29;20211;-69
2021/10/12 08:15:05;;;;;;;9.00;6.22;;;9.00;99.90;;;;;;4878152;29;20255;-69
2021/10/12 08:17:32;;;;;;;7.18;6.47;;;9.00;99.90;;;;;;4877761;29;20207;-70
2021/10/12 08:19:58;;;;;;;8.23;6.75;;;9.00;99.90;;;;;;4878400;29;20211;-70
2021/10/12 08:22:25;;;;;;;8.38;6.82;;;9.10;99.90;;;;;;4878060;29;20206;-70
2021/10/12 08:24:52;;;;;;;7.20;6.50;;;9.00;99.90;;;;;;4878257;29;20254;-69
2021/10/12 08:27:18;;;;;;;9.38;6.78;;;9.10;99.90;;;;;;4877395;29;20203;-69
2021/10/12 08:29:45;;;;;;;7.00;6.05;;;9.10;99.90;;;;;;4878423;29;20234;-69
2021/10/12 08:32:13;;;;;;;7.88;6.70;;;9.10;99.90;;;;;;4877999;29;20207;-68
2021/10/12 08:34:40;;;;;;;9.32;6.03;;;9.20;99.90;;;;;;4877741;29;20238;-69
2021/10/12 08:37:07;;;;;;;7.60;5.90;;;9.20;99.90;;;;;;4877400;29;20609;-69
2021/10/12 08:39:34;;;;;;;10.48;7.38;;;9.20;99.90;;;;;;4878025;29;20211;-70
2021/10/12 08:42:08;;;;;;;14.15;7.30;;;9.30;99.90;;;;;;4877961;29;20203;-69
2021/10/12 08:44:48;;;;;;;12.10;6.53;;;9.40;99.90;;;;;;4878098;29;20235;-70
2021/10/12 08:47:17;;;;;;;11.15;5.72;;;9.40;99.90;;;;;;4877351;29;20242;-69
2021/10/12 08:49:44;;;;;;;9.85;6.85;;;9.40;99.90;;;;;;4877795;29;20210;-70
2021/10/12 08:52:11;;;;;;;9.38;5.80;;;9.50;99.90;;;;;;4877663;29;20612;-69
2021/10/12 08:54:38;;;;;;;9.00;5.80;;;9.50;99.90;;;;;;4877541;29;20238;-69
2021/10/12 08:57:05;;;;;;;7.53;6.00;;;9.50;99.90;;;;;;4877344;29;20227;-70
2021/10/12 08:59:31;;;;;;;7.13;6.38;;;9.60;99.90;;;;;;4877780;29;20613;-69
2021/10/12 09:02:00;;;;;;;8.40;6.10;;;9.70;99.90;;;;;;4877635;29;20211;-70
2021/10/12 09:04:38;;;;;;;10.43;6.65;;;9.70;99.90;;;;;;4877511;29;20707;-69
2021/10/12 09:07:05;;;;;;;6.85;5.55;;;9.80;99.90;;;;;;4877310;29;20222;-69
2021/10/12 09:09:36;;;;;;;7.82;6.00;;;9.80;99.90;;;;;;4877610;29;20207;-69
2021/10/12 09:12:03;;;;;;;8.90;6.07;;;9.80;99.90;;;;;;4877238;29;20210;-69
2021/10/12 09:14:30;;;;;;;10.10;5.22;;;9.80;99.90;;;;;;4877609;29;20234;-69
2021/10/12 09:17:05;;;;;;;6.50;5.90;;;9.80;99.90;;;;;;4876797;29;20718;-69
2021/10/12 09:19:34;;;;;;;8.05;6.18;;;9.80;99.90;;;;;;4877788;29;20282;-70
2021/10/12 09:22:06;;;;;;;11.88;6.20;;;9.90;99.90;;;;;;4877443;29;20207;-70
2021/10/12 09:24:38;;;;;;;7.40;6.65;;;9.90;99.90;;;;;;4877363;29;20255;-70
2021/10/12 09:27:07;;;;;;;6.95;4.95;;;9.90;99.90;;;;;;4876841;29;20230;-70
2021/10/12 09:29:36;;;;;;;8.18;5.15;;;9.90;99.90;;;;;;4877088;29;20207;-69
2021/10/12 09:32:05;;;;;;;7.82;6.68;;;10.00;99.90;;;;;;4877122;29;20675;-69
2021/10/12 09:34:35;;;;;;;6.63;6.03;;;10.00;99.90;;;;;;4877229;29;20234;-69
2021/10/12 09:37:04;;;;;;;6.82;5.18;;;10.10;99.90;;;;;;4876676;29;20263;-69
2021/10/12 09:39:34;;;;;;;9.05;6.03;;;10.10;99.90;;;;;;4876591;29;20694;-69
2021/10/12 09:42:03;;;;;;;7.38;5.93;;;10.20;99.90;;;;;;4876963;29;20226;-70
2021/10/12 09:44:30;;;;;;;10.95;5.90;;;10.30;99.90;;;;;;4876919;29;20234;-70
2021/10/12 09:47:08;;;;;;;8.07;6.07;;;10.50;99.90;;;;;;4876598;29;20302;-70
2021/10/12 09:49:37;;;;;;;7.38;5.88;;;10.60;99.90;;;;;;4877088;29;20222;-70
2021/10/12 09:52:05;;;;;;;10.25;6.15;;;10.80;99.90;;;;;;4876790;29;20207;-69
2021/10/12 09:54:34;;;;;;;5.47;4.90;;;11.00;99.90;;;;;;4877067;29;20235;-69
2021/10/12 09:57:02;;;;;;;5.93;5.32;;;11.20;99.90;;;;;;4876232;29;20227;-69
2021/10/12 09:59:30;;;;;;;5.88;5.22;;;11.20;99.90;;;;;;4876917;29;20222;-69
2021/10/12 10:01:58;;;;;;;7.72;5.85;;;11.00;99.90;;;;;;4876821;29;20203;-69
2021/10/12 10:04:26;;;;;;;7.50;5.55;;;11.00;99.90;;;;;;4876637;29;20595;-69
2021/10/12 10:07:01;;;;;;;8.27;5.10;;;10.90;99.90;;;;;;4876385;29;20290;-69
2021/10/12 10:09:28;;;;;;;6.30;4.50;;;10.90;99.90;;;;;;4877127;29;20222;-70
2021/10/12 10:11:55;;;;;;;8.70;4.93;;;10.80;99.90;;;;;;4876671;29;20675;-70
2021/10/12 10:14:22;;;;;;;5.82;4.68;;;10.80;99.90;;;;;;4876594;29;20234;-69
2021/10/12 10:16:52;;;;;;;5.88;5.05;;;10.70;99.90;;;;;;4876233;29;20967;-70
2021/10/12 10:19:21;;;;;;;6.90;5.38;;;10.80;99.90;;;;;;4876752;29;20215;-70
2021/10/12 10:21:48;;;;;;;7.30;5.05;;;10.70;99.90;;;;;;4876926;29;20204;-69
2021/10/12 10:24:23;;;;;;;6.28;4.60;;;10.80;99.90;;;;;;4876394;29;20253;-70
2021/10/12 10:26:51;;;;;;;6.65;5.32;;;10.80;99.90;;;;;;4876495;29;20241;-70
2021/10/12 10:29:28;;;;;;;6.70;4.70;;;10.80;99.90;;;;;;4876631;29;20207;-70
2021/10/12 10:31:59;;;;;;;6.85;5.35;;;10.90;99.90;;;;;;4876897;29;20234;-70
2021/10/12 10:34:38;;;;;;;9.55;5.35;;;10.90;99.90;;;;;;4876611;29;20243;-70
2021/10/12 10:37:25;;;;;;;6.30;4.25;;;10.90;99.90;;;;;;4876571;29;20226;-70
2021/10/12 10:39:57;;;;;;;7.45;5.40;;;10.90;99.90;;;;;;4876771;29;20230;-70
2021/10/12 10:42:57;;;;;;;6.45;4.65;;;10.80;99.90;;;;;;4876862;29;20212;-70
2021/10/12 10:45:48;;;;;;;7.72;5.22;;;10.80;99.90;;;;;;4876044;29;20608;-69
2021/10/12 10:48:18;;;;;;;8.15;6.22;;;10.80;99.90;;;;;;4876991;29;20578;-70
2021/10/12 10:50:44;;;;;;;8.07;5.70;;;11.00;99.90;;;;;;4876706;29;20207;-70
2021/10/12 10:53:12;;;;;;;7.07;4.63;;;11.30;99.90;;;;;;4879207;29;20211;-71
2021/10/12 10:55:44;;;;;;;8.77;5.05;;;11.60;99.90;;;;;;4879870;29;20235;-70
2021/10/12 10:58:14;;;;;;;7.85;4.82;;;11.70;99.90;;;;;;4879893;29;20227;-70
2021/10/12 11:00:43;;;;;;;9.65;5.00;;;11.80;99.90;;;;;;4880087;29;20595;-70
2021/10/12 11:03:31;;;;;;;6.93;4.30;;;11.80;99.90;;;;;;4879717;29;20211;-69
2021/10/12 11:06:00;;;;;;;7.40;4.95;;;11.80;99.90;;;;;;4879294;29;20259;-69
2021/10/12 11:08:28;;;;;;;5.55;4.57;;;11.90;99.90;;;;;;4879601;29;20218;-70
2021/10/12 11:10:58;;;;;;;7.40;4.95;;;11.90;99.90;;;;;;4880042;29;20572;-69
2021/10/12 11:13:29;;;;;;;5.47;4.50;;;11.70;99.90;;;;;;4879392;29;20218;-69
2021/10/12 11:15:56;;;;;;;6.38;5.60;;;11.50;99.90;;;;;;4878884;29;20234;-69
2021/10/12 11:18:24;;;;;;;7.63;5.47;;;11.40;99.90;;;;;;4879571;29;20207;-69
2021/10/12 11:20:53;;;;;;;6.38;4.80;;;11.30;99.90;;;;;;4879928;29;20231;-69
2021/10/12 11:23:28;;;;;;;5.32;4.75;;;11.20;99.90;;;;;;4879003;29;20225;-69
2021/10/12 11:26:00;;;;;;;6.03;4.90;;;11.00;99.90;;;;;;4878943;29;20237;-69
2021/10/12 11:28:28;;;;;;;7.00;5.65;;;11.00;99.90;;;;;;4879361;29;20219;-70
2021/10/12 11:30:55;;;;;;;6.88;5.38;;;10.90;99.90;;;;;;4879289;29;20604;-70
2021/10/12 11:33:33;;;;;;;5.70;5.10;;;10.90;99.90;;;;;;4878853;29;20231;-68
2021/10/12 11:36:01;;;;;;;8.95;6.50;;;10.80;99.90;;;;;;4878722;29;20235;-69
2021/10/12 11:38:35;;;;;;;9.23;6.22;;;10.70;99.90;;;;;;4879209;29;20301;-69
2021/10/12 11:41:20;;;;;;;8.57;6.47;;;10.70;99.90;;;;;;4879243;29;20207;-68
2021/10/12 11:43:48;;;;;;;6.65;4.85;;;10.70;99.90;;;;;;4879057;29;20207;-69
2021/10/12 11:46:20;;;;;;;7.20;4.50;;;10.60;99.90;;;;;;4878133;29;20746;-69
2021/10/12 11:48:47;;;;;;;10.35;5.53;;;10.60;99.90;;;;;;4879084;29;20711;-70
2021/10/12 11:51:19;;;;;;;5.22;3.90;;;10.50;99.90;;;;;;4878760;29;20707;-69
2021/10/12 11:53:49;;;;;;;5.78;4.57;;;10.50;99.90;;;;;;4878889;29;20218;-68
2021/10/12 11:56:17;;;;;;;4.50;4.05;;;10.50;99.90;;;;;;4878176;29;20246;-69
2021/10/12 11:58:44;;;;;;;7.35;4.50;;;10.60;99.90;;;;;;4878850;29;20211;-69
2021/10/12 12:01:15;;;;;;;4.50;4.10;;;10.80;99.90;;;;;;4878820;29;20215;-70
2021/10/12 12:03:42;;;;;;;7.00;4.50;;;10.90;99.90;;;;;;4878428;29;20214;-70
2021/10/12 12:06:10;;;;;;;8.40;4.50;;;11.20;99.90;;;;;;4877931;29;20287;-69
2021/10/12 12:08:40;;;;;;;5.85;4.05;;;11.40;99.90;;;;;;4878755;29;20203;-69
2021/10/12 12:11:09;;;;;;;6.57;4.63;;;11.60;99.90;;;;;;4878608;29;20238;-69
2021/10/12 12:13:36;;;;;;;5.28;4.47;;;11.80;99.90;;;;;;4878249;29;20575;-68
2021/10/12 12:16:03;;;;;;;6.20;4.15;;;11.80;99.90;;;;;;4878009;29;20288;-70
2021/10/12 12:18:38;;;;;;;6.75;4.18;;;11.70;99.90;;;;;;4878329;29;20238;-69
2021/10/12 12:21:05;;;;;;;4.38;3.92;;;11.70;99.90;;;;;;4878394;29;20262;-69
2021/10/12 12:23:38;;;;;;;12.43;3.88;;;11.70;99.90;;;;;;4878302;29;20267;-68
2021/10/12 12:26:06;;;;;;;5.28;3.63;;;11.70;99.90;;;;;;4877666;29;20234;-69
2021/10/12 12:28:35;;;;;;;5.35;4.20;;;11.70;99.90;;;;;;4878194;29;20214;-69
2021/10/12 12:31:18;;;;;;;10.52;4.25;;;11.80;99.90;;;;;;4878563;29;20211;-70
2021/10/12 12:33:45;;;;;;;4.60;3.75;;;11.90;99.90;;;;;;4954987;23;20252;-72
2021/10/12 12:36:12;;;;;;;5.20;3.67;;;11.80;99.90;;;;;;4882855;29;20219;-72
2021/10/12 12:38:39;;;;;;;5.40;3.90;;;11.80;99.90;;;;;;4878087;29;20227;-72
2021/10/12 12:41:20;;;;;;;6.13;5.35;;;11.80;99.90;;;;;;4878073;29;20708;-73
2021/10/12 12:43:56;;;;;;;6.30;4.30;;;11.90;99.90;;;;;;4878199;29;20214;-73
2021/10/12 12:46:24;;;;;;;5.32;4.00;;;12.00;99.90;;;;;;4877487;29;20214;-73
2021/10/12 12:49:09;;;;;;;9.65;4.10;;;12.00;99.90;;;;;;4878250;29;20599;-72
2021/10/12 12:51:39;;;;;;;5.47;4.10;;;11.90;99.90;;;;;;4877699;29;20241;-72